Archival Weather

Heathrow

Heathrow, United Kingdom (EGLL)

Report from: Thursday, June 23, 2022 12:20 AM BST
Current time: Tuesday, August 16, 2022 7:45 AM BST

Current weather
Weather history
Weather forecast

Temperature16.0°C (60.8°F)
Dew point11.0°C (51.8°F)
Winds 4 kts (2.1 m/s, 4.6 mph) East (90°)
Visibility6.2 mi. (10 km)
Clouds Sky clear
Altimeter29.91 in.Hg (1013 mB)
Relative humidity72 %
Density altitude311 ft. (95 m)
Remarks Fully automated report
No clouds detected
No significant changes expected in the next two hours
Flight conditions Visual Meteorological Conditions
Raw dataEGLL 222320Z AUTO 09004KT 9999 NCD 16/11 Q1013 NOSIG
An error has occurred. This application may no longer respond until reloaded. Reload 🗙